Terminal Aerodrome Forecast
Issued by NWS

Home | Current Version | Previous Version | Text Only | Print | Product List | Glossary On
Versions: 1 2 3 4 5 6 7 8 9 10 11 12 13 14 15 16 17
000
FTUS43 KAPX 210520
TAFMBL
TAF
KMBL 210520Z 2106/2206 22016G26KT P6SM BKN140 WS015/21040KT
     FM211100 25014G24KT P6SM BKN100 WS015/21040KT
     FM211300 26013G21KT P6SM BKN090 WS020/23040KT
     FM211700 29014G23KT P6SM BKN035
     FM220000 32012G24KT P6SM BKN040=

USA.gov is the U.S. government's official web portal to all federal, state and local government web resources and services.